PWSweather.com
Personal Weather Stations
Station Observations
KGAROSWE1
Roswell (historic Mill Village), Roswell, GA 30075

Roswell (historic Mill Village)Roswell, GA 30075

Lat: 34.014545, Lon: -84.358498

Elevation: 1025

Station Type: Davis Vantage Vue

http://www.roswellweather.net

High Low Average
Temperature 48.5°F9.2°F 22.1°F-5.5°F 33.1°F0.6°F
Dew Point 25.0°F-3.9°F 16.3°F-8.7°F 20.4°F-6.4°F
Winds 3.0 mph E4.8 mph E Calm Calm 0.2 mph 0.3 mph
Wind Gusts 6.0 mph9.7 mph -- 0.7 mph1.1 mph
Humidity 93% 29% 63%
Pressure 30.60 in1036.20 in 30.45 in1031.20 in -
Precipitation 1.33 in33.80 in - -
Hour Temp Dew Point Humidity Winds Wind Gusts Pressure Precip Precip Rate Daily Precip Total
12:00 AM 27.0°F-2.8°C 18.5°F-7.5°C 70% Calm Calm -- 30.51 in1033.2 mb 0.00 in0.0 mm 0.00 in0.0 mm 0.00 in0.0 mm
12:08 AM 26.9°F-2.8°C 18.4°F-7.6°C 70% Calm Calm -- 30.51 in1033.2 mb 0.00 in0.0 mm 0.00 in0.0 mm 0.00 in0.0 mm
12:16 AM 26.6°F-3.0°C 18.8°F-7.3°C 72% Calm Calm -- 30.51 in1033.2 mb 0.00 in0.0 mm 0.00 in0.0 mm 0.00 in0.0 mm
12:24 AM 26.2°F-3.2°C 18.1°F-7.7°C 71% Calm Calm -- 30.51 in1033.2 mb 0.00 in0.0 mm 0.00 in0.0 mm 0.00 in0.0 mm
12:32 AM 25.9°F-3.4°C 18.5°F-7.5°C 73% Calm Calm -- 30.51 in1033.2 mb 0.00 in0.0 mm 0.00 in0.0 mm 0.00 in0.0 mm
12:40 AM 25.8°F-3.4°C 18.4°F-7.6°C 73% Calm Calm -- 30.51 in1033.2 mb 0.00 in0.0 mm 0.00 in0.0 mm 0.00 in0.0 mm
12:48 AM 25.8°F-3.4°C 18.4°F-7.6°C 73% Calm Calm -- 30.51 in1033.2 mb 0.00 in0.0 mm 0.00 in0.0 mm 0.00 in0.0 mm
12:56 AM 26.0°F-3.3°C 18.6°F-7.4°C 73% Calm Calm -- 30.52 in1033.5 mb 0.00 in0.0 mm 0.00 in0.0 mm 0.00 in0.0 mm
01:04 AM 26.3°F-3.2°C 18.5°F-7.5°C 72% Calm Calm 1.0 mph1.6 kmh 30.52 in1033.5 mb 0.00 in0.0 mm 0.00 in0.0 mm 0.00 in0.0 mm
01:12 AM 26.4°F-3.1°C 18.6°F-7.4°C 72% Calm Calm -- 30.52 in1033.5 mb 0.00 in0.0 mm 0.00 in0.0 mm 0.00 in0.0 mm
01:20 AM 26.5°F-3.1°C 18.7°F-7.4°C 72% Calm Calm -- 30.52 in1033.5 mb 0.00 in0.0 mm 0.00 in0.0 mm 0.00 in0.0 mm
01:28 AM 26.3°F-3.2°C 18.5°F-7.5°C 72% Calm Calm -- 30.52 in1033.5 mb 0.00 in0.0 mm 0.00 in0.0 mm 0.00 in0.0 mm
01:36 AM 26.2°F-3.2°C 18.4°F-7.6°C 72% Calm Calm -- 30.52 in1033.5 mb 0.00 in0.0 mm 0.00 in0.0 mm 0.00 in0.0 mm
01:44 AM 26.2°F-3.2°C 18.7°F-7.4°C 73% Calm Calm -- 30.52 in1033.5 mb 0.00 in0.0 mm 0.00 in0.0 mm 0.00 in0.0 mm
01:52 AM 26.2°F-3.2°C 18.7°F-7.4°C 73% Calm Calm -- 30.52 in1033.5 mb 0.00 in0.0 mm 0.00 in0.0 mm 0.00 in0.0 mm
02:00 AM 26.3°F-3.2°C 18.8°F-7.3°C 73% Calm Calm -- 30.52 in1033.5 mb 0.00 in0.0 mm 0.00 in0.0 mm 0.00 in0.0 mm
02:08 AM 26.4°F-3.1°C 18.9°F-7.3°C 73% Calm Calm -- 30.52 in1033.5 mb 0.00 in0.0 mm 0.00 in0.0 mm 0.00 in0.0 mm
02:16 AM 26.2°F-3.2°C 19.4°F-7.0°C 75% Calm Calm -- 30.52 in1033.5 mb 0.00 in0.0 mm 0.00 in0.0 mm 0.00 in0.0 mm
02:24 AM 25.9°F-3.4°C 18.8°F-7.3°C 74% Calm Calm -- 30.52 in1033.5 mb 0.00 in0.0 mm 0.00 in0.0 mm 0.00 in0.0 mm
02:32 AM 25.4°F-3.7°C 18.6°F-7.4°C 75% Calm Calm -- 30.52 in1033.5 mb 0.00 in0.0 mm 0.00 in0.0 mm 0.00 in0.0 mm
02:40 AM 25.0°F-3.9°C 18.5°F-7.5°C 76% Calm Calm -- 30.52 in1033.5 mb 0.00 in0.0 mm 0.00 in0.0 mm 0.00 in0.0 mm
02:48 AM 25.0°F-3.9°C 19.7°F-6.8°C 80% Calm Calm -- 30.52 in1033.5 mb 0.00 in0.0 mm 0.00 in0.0 mm 0.00 in0.0 mm
02:56 AM 25.0°F-3.9°C 20.0°F-6.7°C 81% Calm Calm -- 30.52 in1033.5 mb 0.00 in0.0 mm 0.00 in0.0 mm 0.00 in0.0 mm
03:04 AM 24.9°F-3.9°C 19.9°F-6.7°C 81% Calm Calm -- 30.52 in1033.5 mb 0.00 in0.0 mm 0.00 in0.0 mm 0.00 in0.0 mm
03:12 AM 24.5°F-4.2°C 19.2°F-7.1°C 80% Calm Calm -- 30.52 in1033.5 mb 0.00 in0.0 mm 0.00 in0.0 mm 0.00 in0.0 mm
03:21 AM 23.6°F-4.7°C 18.6°F-7.4°C 81% Calm Calm -- 30.52 in1033.5 mb 0.00 in0.0 mm 0.00 in0.0 mm 0.00 in0.0 mm
03:31 AM 23.6°F-4.7°C 18.6°F-7.4°C 81% Calm Calm -- 30.52 in1033.5 mb 0.00 in0.0 mm 0.00 in0.0 mm 0.00 in0.0 mm
03:38 AM 23.6°F-4.7°C 18.6°F-7.4°C 81% Calm Calm -- 30.52 in1033.5 mb 0.00 in0.0 mm 0.00 in0.0 mm 0.00 in0.0 mm
03:46 AM 23.6°F-4.7°C 18.6°F-7.4°C 81% Calm Calm -- 30.52 in1033.5 mb 0.00 in0.0 mm 0.00 in0.0 mm 0.00 in0.0 mm
03:54 AM 23.6°F-4.7°C 18.6°F-7.4°C 81% Calm Calm -- 30.52 in1033.5 mb 0.00 in0.0 mm 0.00 in0.0 mm 0.00 in0.0 mm
04:02 AM 23.6°F-4.7°C 18.6°F-7.4°C 81% Calm Calm -- 30.52 in1033.5 mb 0.00 in0.0 mm 0.00 in0.0 mm 0.00 in0.0 mm
04:10 AM 23.6°F-4.7°C 18.6°F-7.4°C 81% Calm Calm -- 30.52 in1033.5 mb 0.00 in0.0 mm 0.00 in0.0 mm 0.00 in0.0 mm
04:18 AM 23.6°F-4.7°C 18.6°F-7.4°C 81% Calm Calm -- 30.52 in1033.5 mb 0.00 in0.0 mm 0.00 in0.0 mm 0.00 in0.0 mm
04:26 AM 23.6°F-4.7°C 18.6°F-7.4°C 81% Calm Calm -- 30.52 in1033.5 mb 0.00 in0.0 mm 0.00 in0.0 mm 0.00 in0.0 mm
04:34 AM 23.6°F-4.7°C 18.6°F-7.4°C 81% Calm Calm -- 30.52 in1033.5 mb 0.00 in0.0 mm 0.00 in0.0 mm 0.00 in0.0 mm
04:42 AM 23.6°F-4.7°C 18.6°F-7.4°C 81% Calm Calm -- 30.53 in1033.9 mb 0.00 in0.0 mm 0.00 in0.0 mm 0.00 in0.0 mm
04:50 AM 23.6°F-4.7°C 18.6°F-7.4°C 81% Calm Calm -- 30.53 in1033.9 mb 0.00 in0.0 mm 0.00 in0.0 mm 0.00 in0.0 mm
04:58 AM 23.6°F-4.7°C 18.6°F-7.4°C 81% Calm Calm -- 30.53 in1033.9 mb 0.00 in0.0 mm 0.00 in0.0 mm 0.00 in0.0 mm
05:06 AM 23.6°F-4.7°C 18.6°F-7.4°C 81% Calm Calm -- 30.53 in1033.9 mb 0.00 in0.0 mm 0.00 in0.0 mm 0.00 in0.0 mm
05:14 AM 23.6°F-4.7°C 18.6°F-7.4°C 81% Calm Calm -- 30.53 in1033.9 mb 0.00 in0.0 mm 0.00 in0.0 mm 0.00 in0.0 mm
05:22 AM 23.6°F-4.7°C 18.6°F-7.4°C 81% Calm Calm -- 30.53 in1033.9 mb 0.00 in0.0 mm 0.00 in0.0 mm 0.00 in0.0 mm
05:30 AM 23.6°F-4.7°C 18.6°F-7.4°C 81% Calm Calm -- 30.54 in1034.2 mb 0.00 in0.0 mm 0.00 in0.0 mm 0.00 in0.0 mm
05:38 AM 23.6°F-4.7°C 18.6°F-7.4°C 81% Calm Calm -- 30.54 in1034.2 mb 0.00 in0.0 mm 0.00 in0.0 mm 0.00 in0.0 mm
05:46 AM 23.6°F-4.7°C 18.6°F-7.4°C 81% Calm Calm -- 30.55 in1034.5 mb 0.00 in0.0 mm 0.00 in0.0 mm 0.00 in0.0 mm
05:54 AM 23.6°F-4.7°C 18.6°F-7.4°C 81% Calm Calm -- 30.55 in1034.5 mb 0.00 in0.0 mm 0.00 in0.0 mm 0.00 in0.0 mm
06:02 AM 23.6°F-4.7°C 18.6°F-7.4°C 81% Calm Calm -- 30.55 in1034.5 mb 0.00 in0.0 mm 0.00 in0.0 mm 0.00 in0.0 mm
06:10 AM 23.6°F-4.7°C 18.6°F-7.4°C 81% Calm Calm -- 30.55 in1034.5 mb 0.00 in0.0 mm 0.00 in0.0 mm 0.00 in0.0 mm
06:18 AM 23.6°F-4.7°C 18.6°F-7.4°C 81% Calm Calm -- 30.55 in1034.5 mb 0.00 in0.0 mm 0.00 in0.0 mm 0.00 in0.0 mm
06:26 AM 23.6°F-4.7°C 18.6°F-7.4°C 81% Calm Calm -- 30.56 in1034.9 mb 0.00 in0.0 mm 0.00 in0.0 mm 0.00 in0.0 mm
06:34 AM 23.6°F-4.7°C 18.6°F-7.4°C 81% Calm Calm -- 30.56 in1034.9 mb 0.00 in0.0 mm 0.00 in0.0 mm 0.00 in0.0 mm
06:42 AM 23.6°F-4.7°C 18.6°F-7.4°C 81% Calm Calm -- 30.56 in1034.9 mb 0.00 in0.0 mm 0.00 in0.0 mm 0.00 in0.0 mm
06:50 AM 23.6°F-4.7°C 18.6°F-7.4°C 81% Calm Calm -- 30.56 in1034.9 mb 0.00 in0.0 mm 0.00 in0.0 mm 0.00 in0.0 mm
06:58 AM 23.6°F-4.7°C 18.6°F-7.4°C 81% Calm Calm -- 30.56 in1034.9 mb 0.00 in0.0 mm 0.00 in0.0 mm 0.00 in0.0 mm
07:06 AM 23.6°F-4.7°C 18.6°F-7.4°C 81% Calm Calm -- 30.56 in1034.9 mb 0.00 in0.0 mm 0.00 in0.0 mm 0.00 in0.0 mm
07:14 AM 23.6°F-4.7°C 18.6°F-7.4°C 81% Calm Calm -- 30.56 in1034.9 mb 0.00 in0.0 mm 0.00 in0.0 mm 0.00 in0.0 mm
07:22 AM 23.6°F-4.7°C 18.6°F-7.4°C 81% Calm Calm -- 30.56 in1034.9 mb 0.00 in0.0 mm 0.00 in0.0 mm 0.00 in0.0 mm
07:30 AM 23.6°F-4.7°C 18.6°F-7.4°C 81% Calm Calm -- 30.56 in1034.9 mb 0.00 in0.0 mm 0.00 in0.0 mm 0.00 in0.0 mm
07:38 AM 23.6°F-4.7°C 18.6°F-7.4°C 81% Calm Calm -- 30.56 in1034.9 mb 0.00 in0.0 mm 0.00 in0.0 mm 0.00 in0.0 mm
07:46 AM 23.6°F-4.7°C 18.6°F-7.4°C 81% Calm Calm -- 30.56 in1034.9 mb 0.00 in0.0 mm 0.00 in0.0 mm 0.00 in0.0 mm
07:54 AM 23.6°F-4.7°C 18.6°F-7.4°C 81% Calm Calm -- 30.56 in1034.9 mb 0.00 in0.0 mm 0.00 in0.0 mm 0.00 in0.0 mm
08:02 AM 23.6°F-4.7°C 18.6°F-7.4°C 81% Calm Calm -- 30.56 in1034.9 mb 0.00 in0.0 mm 0.00 in0.0 mm 0.00 in0.0 mm
08:10 AM 22.1°F-5.5°C 20.4°F-6.4°C 93% Calm Calm -- 30.56 in1034.9 mb 0.00 in0.0 mm 0.00 in0.0 mm 0.00 in0.0 mm
08:18 AM 22.5°F-5.3°C 20.8°F-6.2°C 93% Calm Calm -- 30.57 in1035.2 mb 0.00 in0.0 mm 0.00 in0.0 mm 0.00 in0.0 mm
08:26 AM 22.9°F-5.1°C 20.9°F-6.2°C 92% Calm Calm -- 30.58 in1035.6 mb 0.00 in0.0 mm 0.00 in0.0 mm 0.00 in0.0 mm
08:34 AM 23.7°F-4.6°C 21.5°F-5.8°C 91% Calm Calm -- 30.58 in1035.6 mb 0.00 in0.0 mm 0.00 in0.0 mm 0.00 in0.0 mm
08:42 AM 24.8°F-4.0°C 22.6°F-5.2°C 91% Calm Calm -- 30.58 in1035.6 mb 0.00 in0.0 mm 0.00 in0.0 mm 0.00 in0.0 mm
08:50 AM 25.8°F-3.4°C 22.7°F-5.2°C 88% Calm Calm -- 30.58 in1035.6 mb 0.00 in0.0 mm 0.00 in0.0 mm 0.00 in0.0 mm
08:58 AM 27.1°F-2.7°C 22.6°F-5.2°C 83% Calm Calm -- 30.59 in1035.9 mb 0.00 in0.0 mm 0.00 in0.0 mm 0.00 in0.0 mm
09:06 AM 28.3°F-2.1°C 22.9°F-5.1°C 80% Calm Calm -- 30.59 in1035.9 mb 0.00 in0.0 mm 0.00 in0.0 mm 0.00 in0.0 mm
09:14 AM 29.4°F-1.4°C 23.1°F-4.9°C 77% Calm Calm -- 30.60 in1036.2 mb 0.00 in0.0 mm 0.00 in0.0 mm 0.00 in0.0 mm
09:22 AM 30.5°F-0.8°C 22.9°F-5.1°C 73% Calm Calm -- 30.60 in1036.2 mb 0.00 in0.0 mm 0.00 in0.0 mm 0.00 in0.0 mm
09:30 AM 31.2°F-0.4°C 21.9°F-5.6°C 68% 1.0 mph NNE1.6 kmh NNE 2.0 mph3.2 kmh 30.60 in1036.2 mb 0.00 in0.0 mm 0.00 in0.0 mm 0.00 in0.0 mm
09:38 AM 31.6°F-0.2°C 21.9°F-5.6°C 67% Calm Calm 1.0 mph1.6 kmh 30.59 in1035.9 mb 0.00 in0.0 mm 0.00 in0.0 mm 0.00 in0.0 mm
09:46 AM 32.4°F0.2°C 22.0°F-5.6°C 65% Calm Calm 3.0 mph4.8 kmh 30.59 in1035.9 mb 0.00 in0.0 mm 0.00 in0.0 mm 0.00 in0.0 mm
09:54 AM 33.1°F0.6°C 21.9°F-5.6°C 63% 2.0 mph E3.2 kmh E 3.0 mph4.8 kmh 30.59 in1035.9 mb 0.00 in0.0 mm 0.00 in0.0 mm 0.00 in0.0 mm
10:02 AM 33.5°F0.8°C 21.9°F-5.6°C 62% Calm Calm 4.0 mph6.4 kmh 30.60 in1036.2 mb 0.00 in0.0 mm 0.00 in0.0 mm 0.00 in0.0 mm
10:10 AM 34.0°F1.1°C 22.0°F-5.6°C 61% 1.0 mph SE1.6 kmh SE 3.0 mph4.8 kmh 30.60 in1036.2 mb 0.00 in0.0 mm 0.00 in0.0 mm 0.00 in0.0 mm
10:18 AM 34.7°F1.5°C 22.3°F-5.4°C 60% Calm Calm 1.0 mph1.6 kmh 30.60 in1036.2 mb 0.00 in0.0 mm 0.00 in0.0 mm 0.00 in0.0 mm
10:26 AM 35.3°F1.8°C 22.4°F-5.3°C 59% Calm Calm 2.0 mph3.2 kmh 30.60 in1036.2 mb 0.00 in0.0 mm 0.00 in0.0 mm 0.00 in0.0 mm
10:34 AM 36.0°F2.2°C 21.8°F-5.7°C 56% 3.0 mph E4.8 kmh E 4.0 mph6.4 kmh 30.60 in1036.2 mb 0.00 in0.0 mm 0.00 in0.0 mm 0.00 in0.0 mm
10:42 AM 36.4°F2.4°C 22.2°F-5.4°C 56% 1.0 mph NE1.6 kmh NE 2.0 mph3.2 kmh 30.60 in1036.2 mb 0.00 in0.0 mm 0.00 in0.0 mm 0.00 in0.0 mm
10:50 AM 36.7°F2.6°C 21.6°F-5.8°C 54% Calm Calm 4.0 mph6.4 kmh 30.60 in1036.2 mb 0.00 in0.0 mm 0.00 in0.0 mm 0.00 in0.0 mm
10:58 AM 37.0°F2.8°C 22.4°F-5.3°C 55% 1.0 mph NNE1.6 kmh NNE 1.0 mph1.6 kmh 30.60 in1036.2 mb 0.00 in0.0 mm 0.00 in0.0 mm 0.00 in0.0 mm
11:06 AM 37.4°F3.0°C 21.9°F-5.6°C 53% Calm Calm 3.0 mph4.8 kmh 30.60 in1036.2 mb 0.00 in0.0 mm 0.00 in0.0 mm 0.00 in0.0 mm
11:14 AM 38.2°F3.4°C 22.1°F-5.5°C 52% Calm Calm 2.0 mph3.2 kmh 30.59 in1035.9 mb 0.00 in0.0 mm 0.00 in0.0 mm 0.00 in0.0 mm
11:22 AM 38.8°F3.8°C 22.7°F-5.2°C 52% Calm Calm -- 30.59 in1035.9 mb 0.00 in0.0 mm 0.00 in0.0 mm 0.00 in0.0 mm
11:30 AM 39.9°F4.4°C 23.3°F-4.8°C 51% 1.0 mph NNE1.6 kmh NNE 2.0 mph3.2 kmh 30.58 in1035.6 mb 0.00 in0.0 mm 0.00 in0.0 mm 0.00 in0.0 mm
11:38 AM 39.9°F4.4°C 22.3°F-5.4°C 49% Calm Calm -- 30.58 in1035.6 mb 0.00 in0.0 mm 0.00 in0.0 mm 0.00 in0.0 mm
11:46 AM 40.3°F4.6°C 22.2°F-5.4°C 48% Calm Calm 4.0 mph6.4 kmh 30.58 in1035.6 mb 0.00 in0.0 mm 0.00 in0.0 mm 0.00 in0.0 mm
11:54 AM 40.8°F4.9°C 21.6°F-5.8°C 46% Calm Calm 3.0 mph4.8 kmh 30.57 in1035.2 mb 0.01 in0.3 mm 0.08 in2.0 mm 0.01 in0.3 mm
12:02 PM 40.8°F4.9°C 22.2°F-5.4°C 47% Calm Calm 4.0 mph6.4 kmh 30.56 in1034.9 mb 0.01 in0.3 mm 0.00 in0.0 mm 0.01 in0.3 mm
12:10 PM 41.2°F5.1°C 22.0°F-5.6°C 46% 3.0 mph NNE4.8 kmh NNE 3.0 mph4.8 kmh 30.56 in1034.9 mb 0.02 in0.5 mm 0.08 in2.0 mm 0.02 in0.5 mm
12:18 PM 41.9°F5.5°C 22.7°F-5.2°C 46% Calm Calm 2.0 mph3.2 kmh 30.55 in1034.5 mb 0.03 in0.8 mm 0.08 in2.0 mm 0.03 in0.8 mm
12:26 PM 42.6°F5.9°C 23.3°F-4.8°C 46% Calm Calm 2.0 mph3.2 kmh 30.54 in1034.2 mb 0.03 in0.8 mm 0.00 in0.0 mm 0.03 in0.8 mm
12:34 PM 42.7°F5.9°C 22.3°F-5.4°C 44% Calm Calm 3.0 mph4.8 kmh 30.54 in1034.2 mb 0.04 in1.0 mm 0.08 in2.0 mm 0.04 in1.0 mm
12:42 PM 43.6°F6.4°C 21.5°F-5.8°C 41% Calm Calm 1.0 mph1.6 kmh 30.53 in1033.9 mb 0.05 in1.3 mm 0.08 in2.0 mm 0.05 in1.3 mm
12:50 PM 44.7°F7.1°C 23.0°F-5.0°C 42% 1.0 mph S1.6 kmh S 1.0 mph1.6 kmh 30.53 in1033.9 mb 0.06 in1.5 mm 0.08 in2.0 mm 0.06 in1.5 mm
12:58 PM 45.1°F7.3°C 23.4°F-4.8°C 42% Calm Calm 2.0 mph3.2 kmh 30.52 in1033.5 mb 0.05 in1.3 mm 0.00 in0.0 mm 0.06 in1.5 mm
01:06 PM 45.1°F7.3°C 22.2°F-5.4°C 40% Calm Calm 1.0 mph1.6 kmh 30.51 in1033.2 mb 0.06 in1.5 mm 0.01 in0.3 mm 0.07 in1.8 mm
01:14 PM 45.4°F7.4°C 20.0°F-6.7°C 36% 2.0 mph E3.2 kmh E 4.0 mph6.4 kmh 30.50 in1032.8 mb 0.06 in1.5 mm 0.00 in0.0 mm 0.07 in1.8 mm
01:22 PM 44.9°F7.2°C 19.6°F-6.9°C 36% 2.0 mph ENE3.2 kmh ENE 3.0 mph4.8 kmh 30.50 in1032.8 mb 0.06 in1.5 mm 0.00 in0.0 mm 0.07 in1.8 mm
01:30 PM 44.9°F7.2°C 18.9°F-7.3°C 35% 2.0 mph NNE3.2 kmh NNE 4.0 mph6.4 kmh 30.49 in1032.5 mb 0.05 in1.3 mm 0.00 in0.0 mm 0.07 in1.8 mm
01:38 PM 45.3°F7.4°C 19.3°F-7.1°C 35% Calm Calm 3.0 mph4.8 kmh 30.48 in1032.2 mb 0.06 in1.5 mm 0.08 in2.0 mm 0.08 in2.0 mm
01:46 PM 45.8°F7.7°C 19.0°F-7.2°C 34% 3.0 mph NNE4.8 kmh NNE 4.0 mph6.4 kmh 30.48 in1032.2 mb 0.06 in1.5 mm 0.00 in0.0 mm 0.08 in2.0 mm
01:54 PM 45.7°F7.6°C 19.0°F-7.2°C 34% Calm Calm 3.0 mph4.8 kmh 30.48 in1032.2 mb 0.05 in1.3 mm 0.00 in0.0 mm 0.08 in2.0 mm
02:02 PM 45.6°F7.6°C 18.9°F-7.3°C 34% 1.0 mph NE1.6 kmh NE 4.0 mph6.4 kmh 30.47 in1031.8 mb 0.05 in1.3 mm 0.00 in0.0 mm 0.08 in2.0 mm
02:10 PM 45.7°F7.6°C 19.0°F-7.2°C 34% Calm Calm 1.0 mph1.6 kmh 30.47 in1031.8 mb 0.05 in1.3 mm 0.00 in0.0 mm 0.08 in2.0 mm
02:18 PM 46.5°F8.1°C 19.0°F-7.2°C 33% 1.0 mph SE1.6 kmh SE 2.0 mph3.2 kmh 30.47 in1031.8 mb 0.05 in1.3 mm 0.00 in0.0 mm 0.08 in2.0 mm
02:26 PM 46.6°F8.1°C 17.6°F-8.0°C 31% Calm Calm 6.0 mph9.7 kmh 30.47 in1031.8 mb 0.04 in1.0 mm 0.00 in0.0 mm 0.08 in2.0 mm
02:34 PM 46.6°F8.1°C 18.3°F-7.6°C 32% Calm Calm 2.0 mph3.2 kmh 30.46 in1031.5 mb 0.04 in1.0 mm 0.00 in0.0 mm 0.08 in2.0 mm
02:42 PM 47.1°F8.4°C 18.0°F-7.8°C 31% Calm Calm 1.0 mph1.6 kmh 30.46 in1031.5 mb 0.04 in1.0 mm 0.00 in0.0 mm 0.08 in2.0 mm
02:50 PM 46.8°F8.2°C 17.8°F-7.9°C 31% Calm Calm 1.0 mph1.6 kmh 30.46 in1031.5 mb 0.03 in0.8 mm 0.00 in0.0 mm 0.08 in2.0 mm
02:58 PM 47.8°F8.8°C 17.9°F-7.8°C 30% Calm Calm -- 30.46 in1031.5 mb 0.03 in0.8 mm 0.00 in0.0 mm 0.08 in2.0 mm
03:06 PM 47.4°F8.6°C 18.3°F-7.6°C 31% 2.0 mph N3.2 kmh N 3.0 mph4.8 kmh 30.46 in1031.5 mb 0.03 in0.8 mm 0.00 in0.0 mm 0.08 in2.0 mm
03:14 PM 46.9°F8.3°C 16.3°F-8.7°C 29% 1.0 mph N1.6 kmh N 2.0 mph3.2 kmh 30.46 in1031.5 mb 0.03 in0.8 mm 0.00 in0.0 mm 0.08 in2.0 mm
03:22 PM 47.1°F8.4°C 16.5°F-8.6°C 29% 1.0 mph N1.6 kmh N 1.0 mph1.6 kmh 30.45 in1031.2 mb 0.02 in0.5 mm 0.00 in0.0 mm 0.08 in2.0 mm
03:30 PM 48.2°F9.0°C 19.0°F-7.2°C 31% Calm Calm 1.0 mph1.6 kmh 30.45 in1031.2 mb 0.02 in0.5 mm 0.00 in0.0 mm 0.08 in2.0 mm
03:38 PM 48.1°F8.9°C 18.2°F-7.7°C 30% Calm Calm 1.0 mph1.6 kmh 30.45 in1031.2 mb 0.03 in0.8 mm 0.08 in2.0 mm 0.09 in2.3 mm
03:46 PM 48.0°F8.9°C 18.1°F-7.7°C 30% Calm Calm 2.0 mph3.2 kmh 30.45 in1031.2 mb 0.02 in0.5 mm 0.00 in0.0 mm 0.09 in2.3 mm
03:54 PM 47.5°F8.6°C 17.6°F-8.0°C 30% Calm Calm 1.0 mph1.6 kmh 30.45 in1031.2 mb 0.02 in0.5 mm 0.00 in0.0 mm 0.09 in2.3 mm
04:02 PM 47.1°F8.4°C 17.3°F-8.2°C 30% 1.0 mph E1.6 kmh E 1.0 mph1.6 kmh 30.45 in1031.2 mb 0.01 in0.3 mm 0.00 in0.0 mm 0.09 in2.3 mm
04:10 PM 47.2°F8.4°C 18.1°F-7.7°C 31% 3.0 mph ENE4.8 kmh ENE 3.0 mph4.8 kmh 30.45 in1031.2 mb 0.01 in0.3 mm 0.00 in0.0 mm 0.09 in2.3 mm
04:18 PM 47.3°F8.5°C 19.7°F-6.8°C 33% 1.0 mph S1.6 kmh S 1.0 mph1.6 kmh 30.45 in1031.2 mb 0.01 in0.3 mm 0.00 in0.0 mm 0.09 in2.3 mm
04:26 PM 47.9°F8.8°C 18.0°F-7.8°C 30% Calm Calm 2.0 mph3.2 kmh 30.46 in1031.5 mb 0.01 in0.3 mm 0.00 in0.0 mm 0.09 in2.3 mm
04:34 PM 47.9°F8.8°C 17.2°F-8.2°C 29% Calm Calm 1.0 mph1.6 kmh 30.46 in1031.5 mb 0.01 in0.3 mm 0.00 in0.0 mm 0.09 in2.3 mm
04:42 PM 48.2°F9.0°C 18.2°F-7.7°C 30% Calm Calm -- 30.46 in1031.5 mb 0.00 in0.0 mm 0.00 in0.0 mm 0.09 in2.3 mm
04:50 PM 48.5°F9.2°C 19.3°F-7.1°C 31% Calm Calm -- 30.46 in1031.5 mb 0.01 in0.3 mm 0.08 in2.0 mm 0.10 in2.5 mm
04:58 PM 48.4°F9.1°C 17.6°F-8.0°C 29% Calm Calm -- 30.47 in1031.8 mb 0.01 in0.3 mm 0.00 in0.0 mm 0.10 in2.5 mm
05:06 PM 47.8°F8.8°C 17.1°F-8.3°C 29% Calm Calm -- 30.47 in1031.8 mb 0.01 in0.3 mm 0.00 in0.0 mm 0.10 in2.5 mm
05:14 PM 47.7°F8.7°C 18.6°F-7.4°C 31% Calm Calm -- 30.47 in1031.8 mb 0.01 in0.3 mm 0.00 in0.0 mm 0.10 in2.5 mm
05:22 PM 46.0°F7.8°C 17.8°F-7.9°C 32% Calm Calm -- 30.47 in1031.8 mb 0.01 in0.3 mm 0.00 in0.0 mm 0.10 in2.5 mm
05:30 PM 44.4°F6.9°C 19.1°F-7.2°C 36% Calm Calm -- 30.47 in1031.8 mb 0.01 in0.3 mm 0.00 in0.0 mm 0.10 in2.5 mm
05:38 PM 43.2°F6.2°C 18.7°F-7.4°C 37% Calm Calm -- 30.47 in1031.8 mb 0.01 in0.3 mm 0.00 in0.0 mm 0.10 in2.5 mm
05:46 PM 41.9°F5.5°C 18.8°F-7.3°C 39% Calm Calm -- 30.47 in1031.8 mb 0.01 in0.3 mm 0.00 in0.0 mm 0.10 in2.5 mm
05:54 PM 40.9°F4.9°C 18.5°F-7.5°C 40% Calm Calm -- 30.47 in1031.8 mb 0.00 in0.0 mm 0.00 in0.0 mm 0.10 in2.5 mm
06:02 PM 39.9°F4.4°C 18.7°F-7.4°C 42% Calm Calm -- 30.47 in1031.8 mb 0.00 in0.0 mm 0.00 in0.0 mm 0.10 in2.5 mm
06:10 PM 39.2°F4.0°C 18.6°F-7.4°C 43% Calm Calm -- 30.47 in1031.8 mb 0.00 in0.0 mm 0.00 in0.0 mm 0.10 in2.5 mm
06:18 PM 38.6°F3.7°C 20.1°F-6.6°C 47% Calm Calm -- 30.47 in1031.8 mb 0.00 in0.0 mm 0.00 in0.0 mm 0.10 in2.5 mm
06:26 PM 38.3°F3.5°C 21.3°F-5.9°C 50% Calm Calm -- 30.47 in1031.8 mb 0.00 in0.0 mm 0.00 in0.0 mm 0.10 in2.5 mm
06:34 PM 37.8°F3.2°C 21.8°F-5.7°C 52% Calm Calm -- 30.47 in1031.8 mb 0.00 in0.0 mm 0.00 in0.0 mm 0.10 in2.5 mm
06:42 PM 37.3°F2.9°C 21.3°F-5.9°C 52% Calm Calm -- 30.47 in1031.8 mb 0.00 in0.0 mm 0.00 in0.0 mm 0.10 in2.5 mm
06:50 PM 36.6°F2.6°C 21.1°F-6.1°C 53% Calm Calm -- 30.47 in1031.8 mb 0.00 in0.0 mm 0.00 in0.0 mm 0.10 in2.5 mm
06:58 PM 36.2°F2.3°C 21.6°F-5.8°C 55% Calm Calm -- 30.46 in1031.5 mb 0.00 in0.0 mm 0.00 in0.0 mm 0.10 in2.5 mm
07:06 PM 35.8°F2.1°C 22.1°F-5.5°C 57% Calm Calm -- 30.46 in1031.5 mb 0.00 in0.0 mm 0.00 in0.0 mm 0.10 in2.5 mm
07:14 PM 35.3°F1.8°C 21.2°F-6.0°C 56% Calm Calm -- 30.47 in1031.8 mb 0.00 in0.0 mm 0.00 in0.0 mm 0.10 in2.5 mm
07:22 PM 34.8°F1.6°C 21.5°F-5.8°C 58% Calm Calm -- 30.47 in1031.8 mb 0.00 in0.0 mm 0.00 in0.0 mm 0.10 in2.5 mm
07:30 PM 34.3°F1.3°C 21.5°F-5.8°C 59% Calm Calm -- 30.47 in1031.8 mb 0.00 in0.0 mm 0.00 in0.0 mm 0.10 in2.5 mm
07:38 PM 34.0°F1.1°C 22.4°F-5.3°C 62% Calm Calm -- 30.47 in1031.8 mb 0.00 in0.0 mm 0.00 in0.0 mm 0.10 in2.5 mm
07:46 PM 33.7°F0.9°C 22.5°F-5.3°C 63% Calm Calm -- 30.47 in1031.8 mb 0.00 in0.0 mm 0.00 in0.0 mm 0.10 in2.5 mm
07:54 PM 33.4°F0.8°C 22.2°F-5.4°C 63% Calm Calm -- 30.47 in1031.8 mb 0.00 in0.0 mm 0.00 in0.0 mm 0.10 in2.5 mm
08:02 PM 33.3°F0.7°C 22.8°F-5.1°C 65% Calm Calm -- 30.47 in1031.8 mb 0.00 in0.0 mm 0.00 in0.0 mm 0.10 in2.5 mm
08:10 PM 33.0°F0.6°C 22.9°F-5.1°C 66% Calm Calm -- 30.47 in1031.8 mb 0.00 in0.0 mm 0.00 in0.0 mm 0.10 in2.5 mm
08:18 PM 32.8°F0.4°C 23.4°F-4.8°C 68% Calm Calm -- 30.47 in1031.8 mb 0.00 in0.0 mm 0.00 in0.0 mm 0.10 in2.5 mm
08:26 PM 32.8°F0.4°C 23.4°F-4.8°C 68% Calm Calm -- 30.47 in1031.8 mb 0.00 in0.0 mm 0.00 in0.0 mm 0.10 in2.5 mm
08:34 PM 32.5°F0.3°C 23.8°F-4.6°C 70% Calm Calm -- 30.47 in1031.8 mb 0.00 in0.0 mm 0.00 in0.0 mm 0.10 in2.5 mm
08:42 PM 32.2°F0.1°C 23.9°F-4.5°C 71% Calm Calm -- 30.47 in1031.8 mb 0.00 in0.0 mm 0.00 in0.0 mm 0.10 in2.5 mm
08:50 PM 31.9°F-0.1°C 23.6°F-4.7°C 71% Calm Calm -- 30.47 in1031.8 mb 0.00 in0.0 mm 0.00 in0.0 mm 0.10 in2.5 mm
08:58 PM 31.7°F-0.2°C 24.1°F-4.4°C 73% Calm Calm -- 30.47 in1031.8 mb 0.00 in0.0 mm 0.00 in0.0 mm 0.10 in2.5 mm
09:06 PM 31.6°F-0.2°C 24.3°F-4.3°C 74% Calm Calm -- 30.46 in1031.5 mb 0.00 in0.0 mm 0.00 in0.0 mm 0.10 in2.5 mm
09:14 PM 31.5°F-0.3°C 23.9°F-4.5°C 73% 1.0 mph NNE1.6 kmh NNE 1.0 mph1.6 kmh 30.46 in1031.5 mb 0.00 in0.0 mm 0.00 in0.0 mm 0.10 in2.5 mm
09:22 PM 31.1°F-0.5°C 23.8°F-4.6°C 74% Calm Calm -- 30.46 in1031.5 mb 0.00 in0.0 mm 0.00 in0.0 mm 0.10 in2.5 mm
09:30 PM 30.8°F-0.7°C 23.2°F-4.9°C 73% Calm Calm -- 30.46 in1031.5 mb 0.00 in0.0 mm 0.00 in0.0 mm 0.10 in2.5 mm
09:38 PM 30.4°F-0.9°C 23.8°F-4.6°C 76% Calm Calm 1.0 mph1.6 kmh 30.46 in1031.5 mb 0.00 in0.0 mm 0.00 in0.0 mm 0.10 in2.5 mm
09:46 PM 30.2°F-1.0°C 23.6°F-4.7°C 76% Calm Calm -- 30.46 in1031.5 mb 0.00 in0.0 mm 0.00 in0.0 mm 0.10 in2.5 mm
09:54 PM 29.9°F-1.2°C 23.9°F-4.5°C 78% Calm Calm -- 30.47 in1031.8 mb 0.00 in0.0 mm 0.00 in0.0 mm 0.10 in2.5 mm
10:02 PM 29.6°F-1.3°C 23.9°F-4.5°C 79% Calm Calm -- 30.47 in1031.8 mb 0.00 in0.0 mm 0.00 in0.0 mm 0.10 in2.5 mm
10:10 PM 29.4°F-1.4°C 24.0°F-4.4°C 80% Calm Calm -- 30.47 in1031.8 mb 0.00 in0.0 mm 0.00 in0.0 mm 0.10 in2.5 mm
10:18 PM 29.3°F-1.5°C 23.9°F-4.5°C 80% Calm Calm -- 30.47 in1031.8 mb 0.00 in0.0 mm 0.00 in0.0 mm 0.10 in2.5 mm
10:26 PM 29.1°F-1.6°C 23.7°F-4.6°C 80% Calm Calm -- 30.47 in1031.8 mb 0.00 in0.0 mm 0.00 in0.0 mm 0.10 in2.5 mm
10:34 PM 29.0°F-1.7°C 23.9°F-4.5°C 81% Calm Calm -- 30.47 in1031.8 mb 0.00 in0.0 mm 0.00 in0.0 mm 0.10 in2.5 mm
10:42 PM 29.2°F-1.6°C 24.4°F-4.2°C 82% Calm Calm -- 30.47 in1031.8 mb 0.00 in0.0 mm 0.00 in0.0 mm 0.10 in2.5 mm
10:50 PM 29.1°F-1.6°C 24.6°F-4.1°C 83% Calm Calm -- 30.48 in1032.2 mb 0.00 in0.0 mm 0.00 in0.0 mm 0.10 in2.5 mm
10:58 PM 29.1°F-1.6°C 23.7°F-4.6°C 80% Calm Calm -- 30.49 in1032.5 mb 0.00 in0.0 mm 0.00 in0.0 mm 0.10 in2.5 mm
11:06 PM 29.3°F-1.5°C 24.5°F-4.2°C 82% Calm Calm -- 30.49 in1032.5 mb 0.00 in0.0 mm 0.00 in0.0 mm 0.10 in2.5 mm
11:14 PM 29.2°F-1.6°C 25.0°F-3.9°C 84% Calm Calm -- 30.49 in1032.5 mb 0.00 in0.0 mm 0.00 in0.0 mm 0.10 in2.5 mm
11:22 PM 29.2°F-1.6°C 24.4°F-4.2°C 82% Calm Calm -- 30.49 in1032.5 mb 0.00 in0.0 mm 0.00 in0.0 mm 0.10 in2.5 mm
11:30 PM 29.1°F-1.6°C 24.3°F-4.3°C 82% Calm Calm -- 30.49 in1032.5 mb 0.00 in0.0 mm 0.00 in0.0 mm 0.10 in2.5 mm
11:38 PM 28.9°F-1.7°C 24.1°F-4.4°C 82% Calm Calm -- 30.48 in1032.2 mb 0.00 in0.0 mm 0.00 in0.0 mm 0.10 in2.5 mm
11:46 PM 28.7°F-1.8°C 24.5°F-4.2°C 84% Calm Calm -- 30.48 in1032.2 mb 0.00 in0.0 mm 0.00 in0.0 mm 0.10 in2.5 mm
11:54 PM 28.6°F-1.9°C 24.7°F-4.1°C 85% Calm Calm -- 30.47 in1031.8 mb 0.00 in0.0 mm 0.00 in0.0 mm 0.10 in2.5 mm